Terminal Aerodrome Forecast
Issued by NWS

Home | Current Version | Previous Version | Text Only | Print | Product List | Glossary On
Versions: 1 2 3 4 5 6 7 8 9 10 11 12 13 14
000
FTUS43 KDTX 251720
TAFDET
TAF
KDET 251720Z 2518/2618 07009KT P6SM BKN120
     FM252300 04010KT P6SM SCT150
     FM260500 36006KT P6SM SKC
     FM261700 34009KT P6SM OVC060=

USA.gov is the U.S. government's official web portal to all federal, state and local government web resources and services.